Time;durP1;ratioP1;P1;durP2;ratioP2;P2;SDS_P1;SDS_P2;PMS_P1;PMS_P2;Temp;Humidity;BMP_temperature;BMP_pressure;BME280_temperature;BME280_humidity;BME280_pressure;Samples;Min_cycle;Max_cycle;Signal;HPM_P1;HPM_P2
2021/09/22 00:02:11;;;;;;;14.55;11.35;;;;;;;15.66;56.41;101141.38;6248057;23;20031;-79
2021/09/22 00:04:38;;;;;;;15.52;11.35;;;;;;;15.66;55.99;101138.72;6220871;23;20023;-79
2021/09/22 00:07:05;;;;;;;17.88;12.93;;;;;;;15.66;56.18;101140.53;6220782;23;20028;-79
2021/09/22 00:09:34;;;;;;;17.25;12.25;;;;;;;15.63;56.69;101136.25;6220904;23;20102;-80
2021/09/22 00:12:00;;;;;;;17.02;13.15;;;;;;;15.64;56.35;101140.59;6221434;23;20081;-80
2021/09/22 00:14:27;;;;;;;18.23;13.07;;;;;;;15.63;56.40;101138.91;6221245;23;20390;-79
2021/09/22 00:16:54;;;;;;;17.20;11.48;;;;;;;15.62;56.47;101139.81;6221172;23;20103;-79
2021/09/22 00:19:21;;;;;;;16.42;12.43;;;;;;;15.61;56.42;101136.34;6247916;23;20031;-79
2021/09/22 00:21:48;;;;;;;16.45;12.18;;;;;;;15.61;56.48;101133.69;6220717;23;20103;-79
2021/09/22 00:24:15;;;;;;;18.75;12.93;;;;;;;15.60;56.52;101131.97;6220526;23;20035;-79
2021/09/22 00:26:41;;;;;;;14.85;12.30;;;;;;;15.59;56.83;101129.41;6220615;23;20027;-79
2021/09/22 00:29:08;;;;;;;16.50;12.70;;;;;;;15.58;56.78;101128.53;6221026;23;20024;-80
2021/09/22 00:31:36;;;;;;;17.33;12.43;;;;;;;15.57;56.83;101128.63;6221575;23;20026;-80
2021/09/22 00:34:04;;;;;;;15.50;11.95;;;;;;;15.56;56.89;101127.78;6220430;23;20078;-79
2021/09/22 00:36:49;;;;;;;16.10;13.02;;;;;;;15.51;57.99;101129.81;6247151;23;20028;-79
2021/09/22 00:39:16;;;;;;;18.67;12.70;;;;;;;15.55;57.19;101127.88;6221261;23;20023;-79
2021/09/22 00:41:43;;;;;;;16.23;12.35;;;;;;;15.54;57.25;101131.44;6221203;23;20511;-79
2021/09/22 00:44:14;;;;;;;15.15;12.98;;;;;;;15.51;58.27;101143.06;6221658;23;20336;-79
2021/09/22 00:46:41;;;;;;;21.67;12.68;;;;;;;15.50;57.34;101131.63;6220577;23;20020;-80
2021/09/22 00:49:18;;;;;;;16.38;13.07;;;;;;;15.46;58.53;101135.38;6248030;23;20063;-79
2021/09/22 00:51:44;;;;;;;21.00;13.73;;;;;;;15.48;57.36;101132.66;6220593;23;20103;-79
2021/09/22 00:54:13;;;;;;;18.23;13.63;;;;;;;15.47;57.79;101129.13;6220702;23;20050;-79
2021/09/22 00:56:40;;;;;;;19.20;14.13;;;;;;;15.45;57.71;101123.06;6220617;23;20027;-79
2021/09/22 00:59:07;;;;;;;18.33;12.88;;;;;;;15.45;57.59;101128.38;6220754;23;20031;-79
2021/09/22 01:01:34;;;;;;;25.10;14.27;;;;;;;15.43;57.65;101119.63;6220343;23;20028;-79
2021/09/22 01:04:03;;;;;;;17.58;12.70;;;;;;;15.42;58.25;101117.94;6221018;23;20600;-79
2021/09/22 01:06:30;;;;;;;18.13;13.85;;;;;;;15.42;57.73;101111.75;6220898;23;20031;-79
2021/09/22 01:08:57;;;;;;;18.27;14.25;;;;;;;15.40;57.92;101111.84;6220346;23;20020;-79
2021/09/22 01:11:28;;;;;;;17.70;14.48;;;;;;;15.36;58.92;101108.50;6221230;23;20027;-79
2021/09/22 01:13:54;;;;;;;19.38;14.88;;;;;;;15.38;58.24;101111.06;6220624;23;20031;-79
2021/09/22 01:16:21;;;;;;;19.95;14.55;;;;;;;15.38;58.28;101124.34;6220638;23;20099;-79
2021/09/22 01:18:48;;;;;;;23.65;14.68;;;;;;;15.36;58.60;101127.06;6220731;23;20031;-79
2021/09/22 01:21:18;;;;;;;26.02;15.00;;;;;;;15.35;59.44;101119.19;6220150;23;20020;-79
2021/09/22 01:23:45;;;;;;;19.13;13.38;;;;;;;15.36;58.66;101118.25;6220446;23;20491;-80
2021/09/22 01:26:23;;;;;;;16.27;13.43;;;;;;;15.31;60.28;101110.56;6220845;23;20488;-79
2021/09/22 01:28:50;;;;;;;22.13;15.80;;;;;;;15.35;58.82;101112.09;6219609;23;20020;-80
2021/09/22 01:31:17;;;;;;;20.98;15.27;;;;;;;15.34;58.94;101112.19;6220463;23;20108;-78
2021/09/22 01:33:45;;;;;;;20.85;15.40;;;;;;;15.33;59.30;101107.81;6219873;23;20412;-79
2021/09/22 01:36:13;;;;;;;19.63;14.65;;;;;;;15.33;59.12;101105.19;6220185;23;20095;-79
2021/09/22 01:38:44;;;;;;;19.92;15.70;;;;;;;15.30;60.18;101103.56;6220250;23;20114;-79
2021/09/22 01:41:12;;;;;;;20.63;15.63;;;;;;;15.29;59.41;101100.97;6246697;23;20024;-79
2021/09/22 01:43:39;;;;;;;26.23;17.40;;;;;;;15.28;59.44;101100.13;6246981;23;20103;-79
2021/09/22 01:46:08;;;;;;;22.20;15.60;;;;;;;15.28;59.54;101107.25;6220460;23;20026;-79
2021/09/22 01:48:35;;;;;;;20.60;16.35;;;;;;;15.27;59.59;101102.84;6220822;23;20020;-79
2021/09/22 01:51:04;;;;;;;23.88;16.95;;;;;;;15.26;59.74;101098.50;6219992;23;20099;-79
2021/09/22 01:53:37;;;;;;;16.75;13.82;;;;;;;15.22;60.55;101098.66;6220526;23;20028;-79
2021/09/22 01:56:06;;;;;;;23.90;15.75;;;;;;;15.24;59.55;101103.88;6220214;23;20095;-80
2021/09/22 01:58:33;;;;;;;22.65;16.25;;;;;;;15.23;59.72;101104.81;6220301;23;20104;-79
2021/09/22 02:01:08;;;;;;;22.60;17.52;;;;;;;15.19;60.67;101104.16;6220305;23;20359;-79
2021/09/22 02:03:37;;;;;;;21.00;15.88;;;;;;;15.21;59.54;101104.91;6219884;23;20035;-79
2021/09/22 02:06:06;;;;;;;27.00;16.98;;;;;;;15.18;60.36;101099.75;6220579;23;20447;-79
2021/09/22 02:08:33;;;;;;;26.70;17.45;;;;;;;15.18;59.79;101101.56;6219994;23;20052;-79
2021/09/22 02:11:00;;;;;;;20.52;16.08;;;;;;;15.16;59.84;101099.00;6219964;23;20024;-80
2021/09/22 02:13:27;;;;;;;25.13;17.77;;;;;;;15.16;59.84;101099.00;6219973;23;20106;-79
2021/09/22 02:15:54;;;;;;;20.42;16.13;;;;;;;15.15;60.03;101097.28;6219894;23;20028;-79
2021/09/22 02:18:22;;;;;;;23.58;17.48;;;;;;;15.14;60.92;101092.91;6220477;23;20099;-79
2021/09/22 02:20:53;;;;;;;22.13;17.48;;;;;;;15.13;61.17;101088.56;6219927;23;20412;-79
2021/09/22 02:23:20;;;;;;;21.25;16.77;;;;;;;15.15;60.33;101094.66;6219588;23;20020;-79
2021/09/22 02:25:47;;;;;;;22.88;17.48;;;;;;;15.16;60.48;101087.53;6219862;23;20519;-79
2021/09/22 02:28:13;;;;;;;22.15;16.60;;;;;;;15.16;60.55;101092.81;6219591;23;20099;-79
2021/09/22 02:30:40;;;;;;;22.88;16.25;;;;;;;15.18;60.63;101093.63;6219861;23;20099;-80
2021/09/22 02:33:09;;;;;;;24.48;16.58;;;;;;;15.18;61.47;101099.75;6220081;23;20034;-78
2021/09/22 02:35:36;;;;;;;24.48;17.33;;;;;;;15.22;61.09;101097.81;6219612;23;20050;-79
2021/09/22 02:38:02;;;;;;;25.38;18.20;;;;;;;15.24;61.25;101094.13;6218800;23;20099;-79
2021/09/22 02:40:32;;;;;;;24.52;17.27;;;;;;;15.28;62.13;101099.28;6219070;23;20070;-79
2021/09/22 02:42:59;;;;;;;26.05;18.42;;;;;;;15.34;61.34;101101.56;6219524;23;20026;-80
2021/09/22 02:45:26;;;;;;;23.85;16.60;;;;;;;15.37;61.43;101098.75;6219776;23;20095;-79
2021/09/22 02:48:07;;;;;;;26.27;17.45;;;;;;;15.39;62.64;101102.16;6246171;23;20028;-80
2021/09/22 02:50:34;;;;;;;22.70;16.83;;;;;;;15.48;61.22;101103.47;6219569;23;20020;-80
2021/09/22 02:53:11;;;;;;;23.15;17.27;;;;;;;15.50;62.24;101099.78;6219990;23;20028;-80
2021/09/22 02:55:38;;;;;;;23.55;17.63;;;;;;;15.57;61.22;101100.28;6219343;23;20028;-80
2021/09/22 02:58:04;;;;;;;27.48;19.27;;;;;;;15.61;61.36;101095.66;6220040;23;20091;-80
2021/09/22 03:00:31;;;;;;;29.05;19.48;;;;;;;15.64;61.30;101098.97;6220171;23;20108;-80
2021/09/22 03:02:58;;;;;;;26.08;18.92;;;;;;;15.67;61.11;101089.16;6219854;23;20024;-80
2021/09/22 03:05:25;;;;;;;26.35;18.98;;;;;;;15.70;61.46;101084.50;6245894;23;20024;-80
2021/09/22 03:07:52;;;;;;;26.77;19.10;;;;;;;15.73;61.29;101086.13;6246442;23;20346;-80
2021/09/22 03:10:19;;;;;;;24.67;16.23;;;;;;;15.75;61.29;101084.25;6220248;23;20473;-80
2021/09/22 03:12:48;;;;;;;22.08;16.77;;;;;;;15.75;61.62;101082.44;6219141;23;20447;-80
2021/09/22 03:15:15;;;;;;;24.67;17.70;;;;;;;15.79;61.41;101074.31;6218807;23;20028;-80
2021/09/22 03:17:42;;;;;;;25.50;19.42;;;;;;;15.81;61.47;101075.91;6218805;23;20020;-79
2021/09/22 03:20:09;;;;;;;21.67;17.23;;;;;;;15.83;61.42;101071.38;6218596;23;20051;-80
2021/09/22 03:22:36;;;;;;;25.63;16.88;;;;;;;15.85;61.46;101068.66;6218961;23;20384;-80
2021/09/22 03:25:08;;;;;;;24.02;18.23;;;;;;;15.86;61.78;101063.22;6218123;23;20039;-80
2021/09/22 03:27:35;;;;;;;21.48;16.23;;;;;;;15.89;61.50;101059.56;6218990;23;20439;-79
2021/09/22 03:30:04;;;;;;;23.17;16.92;;;;;;;15.91;61.61;101062.97;6220076;23;20313;-80
2021/09/22 03:32:33;;;;;;;21.88;17.75;;;;;;;15.93;61.72;101063.75;6219906;23;20024;-79
2021/09/22 03:34:59;;;;;;;24.33;16.50;;;;;;;15.97;61.45;101064.44;6219660;23;20046;-80
2021/09/22 03:37:26;;;;;;;24.58;18.83;;;;;;;15.98;61.53;101067.03;6219289;23;20103;-80
2021/09/22 03:39:53;;;;;;;25.58;18.10;;;;;;;15.99;61.42;101063.41;6219510;23;20020;-80
2021/09/22 03:42:20;;;;;;;27.30;18.67;;;;;;;15.98;61.26;101067.03;6220277;23;20095;-80
2021/09/22 03:44:46;;;;;;;26.17;19.08;;;;;;;15.99;61.27;101067.84;6245555;23;20034;-80
2021/09/22 03:47:13;;;;;;;24.50;17.80;;;;;;;15.98;61.16;101071.47;6219701;23;20507;-80
2021/09/22 03:49:40;;;;;;;25.15;17.65;;;;;;;15.97;61.00;101075.06;6219572;23;20380;-79
2021/09/22 03:52:06;;;;;;;25.58;17.98;;;;;;;15.95;60.92;101072.50;6219433;23;20107;-80
2021/09/22 03:54:35;;;;;;;27.70;18.90;;;;;;;15.92;61.23;101074.47;6218956;23;20024;-80
2021/09/22 03:57:02;;;;;;;24.65;18.58;;;;;;;15.89;60.78;101075.50;6220423;23;20370;-79
2021/09/22 03:59:33;;;;;;;25.90;19.17;;;;;;;15.82;61.73;101072.34;6219488;23;20402;-79
2021/09/22 04:02:00;;;;;;;27.52;19.30;;;;;;;15.80;60.84;101078.66;6220497;23;20023;-79
2021/09/22 04:04:34;;;;;;;24.55;17.73;;;;;;;15.71;61.59;101075.63;6221495;23;20338;-79
2021/09/22 04:07:01;;;;;;;23.33;18.23;;;;;;;15.70;60.79;101073.06;6247954;23;20154;-79
2021/09/22 04:09:27;;;;;;;27.90;18.60;;;;;;;15.66;60.97;101071.50;6221344;23;20506;-80
2021/09/22 04:11:54;;;;;;;26.00;18.83;;;;;;;15.61;60.96;101072.63;6247309;23;20065;-80
2021/09/22 04:14:21;;;;;;;25.75;18.90;;;;;;;15.57;61.13;101072.88;6220685;23;20107;-80
2021/09/22 04:16:48;;;;;;;27.45;18.80;;;;;;;15.52;61.27;101073.16;6221361;23;20020;-78
2021/09/22 04:19:15;;;;;;;27.98;19.40;;;;;;;15.46;61.15;101066.41;6221470;23;20074;-79
2021/09/22 04:21:52;;;;;;;26.42;19.00;;;;;;;15.39;62.36;101074.81;6247745;23;20040;-79
2021/09/22 04:24:18;;;;;;;26.63;19.48;;;;;;;15.38;61.37;101073.94;6220678;23;20020;-79
2021/09/22 04:26:52;;;;;;;25.85;18.15;;;;;;;15.30;62.52;101069.06;6220678;23;20107;-79
2021/09/22 04:29:19;;;;;;;25.80;18.65;;;;;;;15.30;61.68;101070.84;6221101;23;20095;-79
2021/09/22 04:31:47;;;;;;;27.80;18.80;;;;;;;15.26;62.00;101075.47;6220884;23;20024;-79
2021/09/22 04:34:14;;;;;;;29.15;19.65;;;;;;;15.25;62.17;101079.06;6220568;23;20036;-79
2021/09/22 04:36:42;;;;;;;27.65;19.15;;;;;;;15.23;62.22;101081.81;6221261;23;20020;-80
2021/09/22 04:39:13;;;;;;;28.48;18.83;;;;;;;15.21;63.26;101074.84;6220794;23;20023;-80
2021/09/22 04:41:40;;;;;;;31.80;19.63;;;;;;;15.22;62.63;101074.78;6221169;23;20099;-79
2021/09/22 04:44:08;;;;;;;27.58;18.58;;;;;;;15.21;62.87;101083.69;6246982;23;20107;-79
2021/09/22 04:46:35;;;;;;;32.30;20.05;;;;;;;15.23;62.92;101086.25;6247485;23;20020;-79
2021/09/22 04:49:05;;;;;;;28.25;18.88;;;;;;;15.24;63.52;101087.97;6221115;23;20502;-79
2021/09/22 04:51:32;;;;;;;29.83;18.17;;;;;;;15.27;62.93;101081.63;6221383;23;20338;-80
2021/09/22 04:53:58;;;;;;;25.77;18.67;;;;;;;15.30;62.97;101092.06;6220795;23;20118;-78
2021/09/22 04:56:25;;;;;;;29.08;20.15;;;;;;;15.32;63.28;101084.88;6220413;23;20028;-80
2021/09/22 04:58:52;;;;;;;35.83;22.25;;;;;;;15.34;63.29;101085.66;6220577;23;20022;-80
2021/09/22 05:01:24;;;;;;;28.05;20.83;;;;;;;15.35;64.21;101092.66;6220478;23;20020;-79
2021/09/22 05:03:51;;;;;;;30.90;20.90;;;;;;;15.38;63.24;101092.50;6221217;23;20020;-79
2021/09/22 05:06:18;;;;;;;33.55;20.70;;;;;;;15.42;63.22;101098.47;6221101;23;20028;-79
2021/09/22 05:08:44;;;;;;;35.75;22.70;;;;;;;15.43;63.27;101103.72;6220461;23;20024;-80
2021/09/22 05:11:28;;;;;;;35.50;22.27;;;;;;;15.41;64.52;101102.97;6220376;23;20026;-80
2021/09/22 05:13:54;;;;;;;34.67;20.83;;;;;;;15.46;63.26;101100.03;6220262;23;20400;-80
2021/09/22 05:16:21;;;;;;;35.60;21.52;;;;;;;15.47;63.28;101099.94;6220681;23;20143;-79
2021/09/22 05:18:58;;;;;;;35.70;21.40;;;;;;;15.45;64.43;101099.19;6220464;23;20075;-79
2021/09/22 05:21:25;;;;;;;37.90;22.15;;;;;;;15.50;63.40;101105.09;6220017;23;20107;-79
2021/09/22 05:23:52;;;;;;;38.22;23.48;;;;;;;15.53;63.46;101108.50;6220087;23;20020;-79
2021/09/22 05:26:27;;;;;;;39.35;21.42;;;;;;;15.52;64.63;101120.06;6220357;23;20020;-79
2021/09/22 05:28:54;;;;;;;37.92;22.55;;;;;;;15.56;63.54;101118.94;6220178;23;20024;-79
2021/09/22 05:31:21;;;;;;;38.83;22.98;;;;;;;15.57;63.37;101110.03;6220828;23;20020;-79
2021/09/22 05:33:51;;;;;;;32.85;21.65;;;;;;;15.57;63.80;101113.56;6220507;23;20103;-79
2021/09/22 05:36:17;;;;;;;35.95;22.98;;;;;;;15.58;63.08;101120.56;6220439;23;20021;-80
2021/09/22 05:38:44;;;;;;;39.55;22.42;;;;;;;15.58;62.93;101125.88;6221063;23;20032;-79
2021/09/22 05:41:11;;;;;;;36.25;23.60;;;;;;;15.56;62.71;101134.88;6220582;23;20447;-79
2021/09/22 05:46:53;;;;;;;35.28;21.48;;;;;;;15.47;62.63;101130.91;6246542;23;20099;-80
2021/09/22 05:49:20;;;;;;;45.28;23.33;;;;;;;15.43;62.83;101124.94;6220436;23;20375;-79
2021/09/22 05:52:06;;;;;;;36.22;21.98;;;;;;;15.37;63.85;101127.94;6220451;23;20028;-79
2021/09/22 05:54:32;;;;;;;40.38;22.80;;;;;;;15.41;63.00;101125.97;6220671;23;20395;-79
2021/09/22 05:57:03;;;;;;;44.85;25.15;;;;;;;15.39;63.73;101127.88;6219834;23;20124;-79
2021/09/22 05:59:30;;;;;;;38.03;24.98;;;;;;;15.39;63.41;101126.03;6219940;23;20091;-80
2021/09/22 06:02:15;;;;;;;50.10;25.85;;;;;;;15.35;64.37;101125.38;6220490;23;20380;-81
2021/09/22 06:04:42;;;;;;;40.13;23.05;;;;;;;15.40;63.56;101125.09;6220265;23;20028;-81
2021/09/22 06:07:09;;;;;;;40.78;25.45;;;;;;;15.42;63.54;101130.31;6219787;23;20055;-81
2021/09/22 06:09:36;;;;;;;39.78;23.77;;;;;;;15.43;63.55;101130.25;6219487;23;20020;-82
2021/09/22 06:12:03;;;;;;;40.63;24.73;;;;;;;15.44;63.36;101121.34;6219818;23;20066;-81
2021/09/22 06:14:30;;;;;;;42.40;24.42;;;;;;;15.45;63.32;101125.72;6220259;23;20024;-80
2021/09/22 06:16:57;;;;;;;41.20;24.67;;;;;;;15.47;63.44;101117.66;6219737;23;20020;-80
2021/09/22 06:19:24;;;;;;;36.60;22.77;;;;;;;15.48;63.36;101120.22;6220108;23;20016;-81
2021/09/22 06:21:50;;;;;;;46.47;26.20;;;;;;;15.48;63.26;101125.53;6220323;23;20024;-78
2021/09/22 06:24:37;;;;;;;42.95;25.05;;;;;;;15.49;63.43;101129.91;6223090;23;20032;-78
2021/09/22 06:27:04;;;;;;;47.20;26.67;;;;;;;15.50;63.25;101125.44;6219519;23;20026;-78
2021/09/22 06:29:56;;;;;;;50.63;25.48;;;;;;;15.44;64.15;101120.50;6220078;23;20325;-81
2021/09/22 06:32:23;;;;;;;45.35;25.35;;;;;;;15.49;63.45;101126.41;6219817;23;20026;-81
2021/09/22 06:34:58;;;;;;;46.92;26.15;;;;;;;15.45;64.26;101125.72;6219944;23;20028;-81
2021/09/22 06:37:24;;;;;;;38.95;24.27;;;;;;;15.49;63.64;101129.91;6220078;23;20020;-81
2021/09/22 06:39:57;;;;;;;40.88;24.25;;;;;;;15.49;64.44;101126.41;6219483;23;20016;-80
2021/09/22 06:42:24;;;;;;;37.28;23.92;;;;;;;15.54;63.69;101128.78;6219648;23;20020;-81
2021/09/22 06:44:51;;;;;;;36.03;23.42;;;;;;;15.56;63.80;101125.13;6219767;23;20115;-79
2021/09/22 06:47:19;;;;;;;42.13;25.00;;;;;;;15.58;64.01;101125.00;6219740;23;20020;-78
2021/09/22 06:49:45;;;;;;;41.33;25.60;;;;;;;15.62;64.12;101123.91;6219343;23;20024;-77
2021/09/22 06:52:13;;;;;;;47.00;25.35;;;;;;;15.66;64.06;101124.59;6219989;23;20382;-78
2021/09/22 06:54:40;;;;;;;42.95;24.52;;;;;;;15.68;63.75;101122.69;6218997;23;20020;-77
2021/09/22 06:57:11;;;;;;;41.50;25.70;;;;;;;15.68;64.24;101128.88;6246625;23;20376;-78
2021/09/22 06:59:37;;;;;;;41.38;26.35;;;;;;;15.72;63.69;101141.03;6219726;23;20038;-78
2021/09/22 07:02:08;;;;;;;38.15;24.27;;;;;;;15.72;64.42;101143.69;6219448;23;20098;-79
2021/09/22 07:04:35;;;;;;;43.63;25.77;;;;;;;15.75;63.98;101138.19;6219508;23;20028;-79
2021/09/22 07:07:02;;;;;;;38.80;24.20;;;;;;;15.80;63.97;101137.06;6220089;23;20099;-80
2021/09/22 07:09:47;;;;;;;35.55;22.13;;;;;;;15.79;64.72;101138.00;6219886;23;20451;-79
2021/09/22 07:12:13;;;;;;;35.28;22.85;;;;;;;15.85;64.02;101143.84;6219953;23;20411;-79
2021/09/22 07:14:40;;;;;;;33.42;22.08;;;;;;;15.88;64.14;101137.50;6219670;23;20394;-80
2021/09/22 07:17:13;;;;;;;37.42;23.45;;;;;;;15.89;64.93;101141.88;6219606;23;20099;-78
2021/09/22 07:19:40;;;;;;;41.83;22.77;;;;;;;15.96;64.27;101145.91;6219445;23;20024;-78
2021/09/22 07:22:06;;;;;;;36.42;22.98;;;;;;;16.00;64.37;101141.28;6245347;23;20027;-79
2021/09/22 07:24:33;;;;;;;35.90;24.73;;;;;;;16.05;64.46;101144.53;6219340;23;20026;-79
2021/09/22 07:27:00;;;;;;;36.42;23.90;;;;;;;16.10;64.29;101145.13;6220011;23;20046;-79
2021/09/22 07:29:35;;;;;;;34.65;22.95;;;;;;;16.13;64.82;101142.28;6219866;23;20428;-79
2021/09/22 07:32:06;;;;;;;40.75;24.95;;;;;;;16.21;64.47;101146.28;6219461;23;20099;-80
2021/09/22 07:34:46;;;;;;;37.88;26.30;;;;;;;16.23;64.81;101139.94;6219697;23;20099;-79
2021/09/22 07:37:13;;;;;;;39.60;25.48;;;;;;;16.32;64.13;101141.19;6247459;23;20028;-79
2021/09/22 07:39:40;;;;;;;37.95;23.38;;;;;;;16.35;64.10;101137.50;6221327;23;20024;-79
2021/09/22 07:42:28;;;;;;;45.40;27.08;;;;;;;16.37;64.61;101143.59;6221445;23;20035;-80
2021/09/22 07:44:54;;;;;;;49.42;26.73;;;;;;;16.47;63.88;101144.75;6221870;23;20339;-79
2021/09/22 07:47:22;;;;;;;39.45;26.05;;;;;;;16.52;63.75;101149.81;6221395;23;20020;-79
2021/09/22 07:49:51;;;;;;;43.30;28.25;;;;;;;16.53;63.89;101146.19;6221962;23;20095;-79
2021/09/22 07:52:19;;;;;;;42.00;26.77;;;;;;;16.56;63.51;101142.50;6220959;23;20020;-80
2021/09/22 07:54:46;;;;;;;43.83;28.17;;;;;;;16.58;63.49;101143.22;6221195;23;20067;-80
2021/09/22 07:57:38;;;;;;;45.67;27.90;;;;;;;16.55;63.94;101141.63;6221165;23;20026;-79
2021/09/22 08:00:06;;;;;;;40.78;25.75;;;;;;;16.61;63.43;101145.72;6221218;23;20094;-79
2021/09/22 08:02:35;;;;;;;43.05;28.13;;;;;;;16.62;63.55;101142.97;6221176;23;20035;-79
2021/09/22 08:05:03;;;;;;;40.97;26.02;;;;;;;16.65;63.47;101141.94;6221083;23;20059;-80
2021/09/22 08:07:41;;;;;;;45.10;28.50;;;;;;;16.68;63.55;101142.59;6223327;23;20020;-79
2021/09/22 08:10:08;;;;;;;39.90;26.90;;;;;;;16.71;63.67;101138.88;6221091;23;20024;-79
2021/09/22 08:12:36;;;;;;;46.70;30.25;;;;;;;16.76;63.60;101144.81;6221547;23;20494;-79
2021/09/22 08:15:04;;;;;;;47.63;28.35;;;;;;;16.83;63.71;101144.41;6221505;23;20465;-79
2021/09/22 08:17:31;;;;;;;43.78;28.08;;;;;;;16.88;63.58;101140.53;6221353;23;20408;-79
2021/09/22 08:19:57;;;;;;;52.10;26.58;;;;;;;16.94;63.51;101139.31;6221124;23;20106;-79
2021/09/22 08:22:24;;;;;;;43.67;28.42;;;;;;;17.00;63.36;101130.94;6221074;23;20103;-79
2021/09/22 08:24:51;;;;;;;39.47;27.25;;;;;;;17.05;63.28;101134.19;6220590;23;20107;-81
2021/09/22 08:27:18;;;;;;;38.22;24.63;;;;;;;17.11;63.41;101132.94;6221812;23;20063;-81
2021/09/22 08:29:45;;;;;;;38.53;25.10;;;;;;;17.16;63.38;101128.19;6221244;23;20047;-81
2021/09/22 08:32:11;;;;;;;38.35;26.25;;;;;;;17.23;63.06;101133.13;6220871;23;20054;-81
2021/09/22 08:34:38;;;;;;;37.83;25.17;;;;;;;17.28;63.00;101123.03;6221097;23;20351;-81
2021/09/22 08:37:05;;;;;;;33.92;24.58;;;;;;;17.35;62.93;101123.50;6220761;23;20028;-81
2021/09/22 08:39:35;;;;;;;34.20;25.52;;;;;;;17.39;62.89;101119.69;6220794;23;20071;-81
2021/09/22 08:42:03;;;;;;;33.10;24.92;;;;;;;17.46;62.78;101115.69;6221271;23;20087;-81
2021/09/22 08:44:30;;;;;;;33.78;23.67;;;;;;;17.54;62.36;101117.84;6221144;23;20024;-81
2021/09/22 08:46:58;;;;;;;32.95;24.65;;;;;;;17.58;62.21;101130.84;6220685;23;20034;-81
2021/09/22 08:49:25;;;;;;;33.05;24.05;;;;;;;17.63;62.36;101130.56;6247486;23;20050;-81
2021/09/22 08:51:53;;;;;;;34.38;24.77;;;;;;;17.66;62.24;101129.50;6247082;23;20083;-81
2021/09/22 08:54:20;;;;;;;31.38;23.65;;;;;;;17.73;62.28;101137.97;6219974;23;20070;-82
2021/09/22 08:57:00;;;;;;;29.45;22.42;;;;;;;17.75;62.63;101128.91;6220304;23;20024;-81
2021/09/22 08:59:27;;;;;;;31.55;22.35;;;;;;;17.87;62.49;101126.41;6220293;23;20039;-81
2021/09/22 09:02:17;;;;;;;29.98;22.60;;;;;;;17.92;62.23;101132.28;6220411;23;20028;-81
2021/09/22 09:05:04;;;;;;;29.23;22.00;;;;;;;18.01;62.07;101125.50;6244169;23;20048;-81
2021/09/22 09:07:33;;;;;;;26.98;20.90;;;;;;;18.12;61.97;101128.31;6246951;23;20028;-81
2021/09/22 09:10:23;;;;;;;32.88;23.67;;;;;;;18.16;61.51;101121.81;6220290;23;20051;-81
2021/09/22 09:13:01;;;;;;;31.67;22.63;;;;;;;18.23;61.49;101122.25;6247023;23;20064;-81
2021/09/22 09:15:44;;;;;;;26.67;21.05;;;;;;;18.29;61.64;101131.66;6220150;23;20055;-81
2021/09/22 09:18:22;;;;;;;28.92;21.88;;;;;;;18.38;62.19;101127.53;6220813;23;20469;-81
2021/09/22 09:20:52;;;;;;;29.60;21.98;;;;;;;18.49;61.76;101127.63;6220225;23;20090;-81
2021/09/22 09:23:21;;;;;;;29.60;21.33;;;;;;;18.59;61.69;101128.72;6220505;23;20056;-79
2021/09/22 09:26:00;;;;;;;27.92;21.83;;;;;;;18.69;61.34;101120.91;6220387;23;20419;-79
2021/09/22 09:28:42;;;;;;;28.65;21.95;;;;;;;18.84;61.54;101118.16;6220671;23;20032;-79
2021/09/22 09:31:13;;;;;;;28.77;21.80;;;;;;;18.96;61.15;101117.28;6219832;23;20515;-80
2021/09/22 09:33:46;;;;;;;27.83;21.75;;;;;;;19.08;60.95;101117.38;6220622;23;20027;-79
2021/09/22 09:36:18;;;;;;;27.63;21.27;;;;;;;19.18;60.83;101113.09;6220506;23;20026;-79
2021/09/22 09:38:54;;;;;;;27.35;21.60;;;;;;;19.24;60.71;101109.97;6220627;23;20347;-78
2021/09/22 09:41:36;;;;;;;26.23;21.35;;;;;;;19.32;60.19;101104.06;6220412;23;20091;-78
2021/09/22 09:44:07;;;;;;;25.75;21.45;;;;;;;19.40;59.61;101107.03;6219842;23;20101;-78
2021/09/22 09:46:35;;;;;;;26.92;20.17;;;;;;;19.47;60.40;101101.28;6220800;23;20099;-79
2021/09/22 09:49:17;;;;;;;27.63;21.27;;;;;;;19.48;59.98;101101.13;6220037;23;20027;-78
2021/09/22 09:51:50;;;;;;;30.23;21.48;;;;;;;19.59;60.05;101096.84;6220110;23;20020;-78
2021/09/22 09:54:26;;;;;;;27.60;19.80;;;;;;;19.65;59.72;101099.91;6219717;23;20067;-79
2021/09/22 09:57:09;;;;;;;25.98;19.98;;;;;;;19.74;59.86;101090.34;6220016;23;20133;-79
2021/09/22 09:59:52;;;;;;;26.10;20.77;;;;;;;19.86;59.80;101090.41;6219919;23;20091;-78
2021/09/22 10:02:28;;;;;;;25.98;21.08;;;;;;;19.96;59.68;101091.41;6220433;23;20091;-78
2021/09/22 10:04:57;;;;;;;28.75;21.42;;;;;;;20.06;58.95;101086.25;6219450;23;20027;-79
2021/09/22 10:07:26;;;;;;;28.27;22.27;;;;;;;20.12;59.01;101083.13;6220663;23;20034;-78
2021/09/22 10:09:53;;;;;;;25.35;20.83;;;;;;;20.16;59.20;101076.56;6220006;23;20104;-79
2021/09/22 10:12:20;;;;;;;25.00;19.48;;;;;;;20.21;58.75;101078.00;6220335;23;20051;-78
2021/09/22 10:14:52;;;;;;;24.20;20.13;;;;;;;20.22;58.16;101079.72;6219980;23;20059;-79
2021/09/22 10:17:22;;;;;;;25.23;19.77;;;;;;;20.28;58.40;101079.25;6219856;23;20099;-79
2021/09/22 10:19:50;;;;;;;26.05;19.67;;;;;;;20.33;58.30;101071.72;6245791;23;20020;-78
2021/09/22 10:22:17;;;;;;;22.58;18.40;;;;;;;20.39;58.17;101068.59;6219756;23;20063;-79
2021/09/22 10:24:49;;;;;;;21.58;18.40;;;;;;;20.44;57.87;101069.06;6219931;23;20359;-78
2021/09/22 10:27:17;;;;;;;22.67;16.70;;;;;;;20.49;57.84;101065.19;6219530;23;20098;-79
2021/09/22 10:32:41;;;;;;;23.67;16.92;;;;;;;20.56;57.88;101061.91;6246556;23;20344;-79
2021/09/22 10:35:26;;;;;;;23.60;17.13;;;;;;;20.62;57.80;101065.91;6220030;23;20447;-79
2021/09/22 10:37:59;;;;;;;23.00;16.73;;;;;;;20.72;57.48;101063.38;6220619;23;20448;-79
2021/09/22 10:40:36;;;;;;;19.02;15.00;;;;;;;20.79;56.82;101053.84;6220067;23;20046;-79
2021/09/22 10:43:15;;;;;;;20.95;15.43;;;;;;;20.86;56.89;101053.38;6219663;23;20050;-78
2021/09/22 10:46:01;;;;;;;21.15;14.93;;;;;;;20.94;56.90;101057.16;6219486;23;20082;-79
2021/09/22 10:48:27;;;;;;;23.00;16.00;;;;;;;21.04;57.01;101054.59;6220070;23;20047;-79
2021/09/22 10:51:04;;;;;;;25.08;17.23;;;;;;;21.15;56.50;101061.75;6220043;23;20500;-79
2021/09/22 10:53:31;;;;;;;21.88;16.80;;;;;;;21.29;56.72;101057.09;6219859;23;20020;-78
2021/09/22 10:56:10;;;;;;;21.35;16.75;;;;;;;21.43;55.64;101042.59;6219558;23;20034;-79
2021/09/22 10:58:51;;;;;;;22.83;15.88;;;;;;;21.60;55.45;101043.84;6219814;23;20024;-78
2021/09/22 11:01:33;;;;;;;19.88;15.95;;;;;;;21.73;54.37;101039.22;6219963;23;20075;-79
2021/09/22 11:04:08;;;;;;;21.27;16.63;;;;;;;21.87;54.49;101045.22;6219653;23;20407;-78
2021/09/22 11:06:44;;;;;;;22.90;17.20;;;;;;;22.00;54.80;101056.63;6219545;23;20099;-79
2021/09/22 11:09:17;;;;;;;20.80;16.25;;;;;;;22.19;55.15;101055.03;6220303;23;20075;-79
2021/09/22 11:11:56;;;;;;;18.92;15.52;;;;;;;22.32;53.68;101051.28;6221376;23;20020;-79
2021/09/22 11:14:35;;;;;;;18.17;14.85;;;;;;;22.45;53.58;101043.00;6221824;23;20343;-78
2021/09/22 11:17:12;;;;;;;16.17;13.70;;;;;;;22.57;52.97;101035.78;6221617;23;20106;-78
2021/09/22 11:19:41;;;;;;;18.13;14.30;;;;;;;22.73;53.51;101040.63;6221437;23;20024;-79
2021/09/22 11:22:23;;;;;;;19.20;14.52;;;;;;;22.88;53.33;101036.56;6221718;23;20087;-79
2021/09/22 11:24:53;;;;;;;15.35;11.57;;;;;;;23.20;53.97;101045.41;6220970;23;20028;-79
2021/09/22 11:27:22;;;;;;;17.23;11.93;;;;;;;23.57;54.03;101038.53;6221957;23;20352;-79
2021/09/22 11:29:54;;;;;;;15.75;12.73;;;;;;;24.06;53.80;101034.94;6221579;23;20020;-79